createdAt,value
2023-12-14T00:02:21.336Z,106.90
2023-12-14T00:04:53.627Z,122.20
2023-12-14T00:07:26.042Z,119.30
2023-12-14T00:09:58.944Z,131.40
2023-12-14T00:12:31.001Z,130.40
2023-12-14T00:15:03.150Z,155.20
2023-12-14T00:17:35.286Z,179.30
2023-12-14T00:20:10.458Z,183.20
2023-12-14T00:22:43.974Z,163.00
2023-12-14T00:25:16.494Z,158.20
2023-12-14T00:27:48.527Z,147.20
2023-12-14T00:30:20.959Z,159.50
2023-12-14T00:32:53.193Z,153.80
2023-12-14T00:35:25.361Z,141.10
2023-12-14T00:37:57.486Z,125.70
2023-12-14T00:40:29.691Z,127.80
2023-12-14T00:43:02.128Z,154.00
2023-12-14T00:45:34.627Z,127.90
2023-12-14T00:48:07.860Z,118.00
2023-12-14T00:51:17.172Z,126.10
2023-12-14T00:53:49.401Z,121.20
2023-12-14T00:56:22.160Z,130.00
2023-12-14T00:58:54.217Z,119.90
2023-12-14T01:01:26.596Z,113.00
2023-12-14T01:04:00.657Z,122.90
2023-12-14T01:06:32.624Z,127.90
2023-12-14T01:09:04.688Z,135.40
2023-12-14T01:11:37.060Z,120.40
2023-12-14T01:14:09.084Z,121.30
2023-12-14T01:16:41.118Z,111.80
2023-12-14T01:19:13.112Z,129.90
2023-12-14T01:21:45.202Z,123.60
2023-12-14T01:24:17.015Z,123.50
2023-12-14T01:26:48.933Z,122.10
2023-12-14T01:29:20.790Z,120.50
2023-12-14T01:31:52.756Z,120.90
2023-12-14T01:34:24.689Z,129.20
2023-12-14T01:36:56.697Z,113.40
2023-12-14T01:39:28.738Z,123.40
2023-12-14T01:42:00.713Z,125.30
2023-12-14T01:44:32.554Z,122.20
2023-12-14T01:47:04.698Z,136.30
2023-12-14T01:49:36.634Z,131.30
2023-12-14T01:52:09.673Z,130.30
2023-12-14T01:54:41.556Z,137.20
2023-12-14T01:57:14.020Z,127.40
2023-12-14T01:59:46.031Z,122.60
2023-12-14T02:02:18.074Z,112.00
2023-12-14T02:04:50.475Z,122.00
2023-12-14T02:07:22.402Z,142.30
2023-12-14T02:09:54.330Z,141.10
2023-12-14T02:12:26.983Z,132.50
2023-12-14T02:15:00.740Z,137.10
2023-12-14T02:17:32.639Z,132.80
2023-12-14T02:20:04.849Z,138.50
2023-12-14T02:22:51.373Z,123.60
2023-12-14T02:25:24.525Z,129.40
2023-12-14T02:27:57.081Z,116.40
2023-12-14T02:30:29.022Z,129.20
2023-12-14T02:33:01.335Z,123.80
2023-12-14T02:35:33.787Z,126.30
2023-12-14T02:38:06.136Z,114.70
2023-12-14T02:40:38.658Z,128.50
2023-12-14T02:43:10.535Z,126.60
2023-12-14T02:45:42.459Z,148.30
2023-12-14T02:48:14.840Z,105.20
2023-12-14T02:50:47.104Z,106.40
2023-12-14T02:53:19.446Z,101.30
2023-12-14T02:55:51.744Z,126.00
2023-12-14T02:58:23.720Z,114.00
2023-12-14T03:00:55.735Z,101.00
2023-12-14T03:03:27.768Z,103.80
2023-12-14T03:05:59.694Z,101.00
2023-12-14T03:08:31.706Z,97.80
2023-12-14T03:11:03.606Z,101.90
2023-12-14T03:13:36.141Z,95.80
2023-12-14T03:16:09.650Z,141.10
2023-12-14T03:18:41.561Z,105.20
2023-12-14T03:21:14.721Z,100.90
2023-12-14T03:23:46.750Z,98.90
2023-12-14T03:26:18.656Z,98.70
2023-12-14T03:28:50.604Z,86.70
2023-12-14T03:31:22.788Z,94.70
2023-12-14T03:33:55.286Z,91.00
2023-12-14T03:36:28.689Z,94.80
2023-12-14T03:39:00.964Z,89.90
2023-12-14T03:41:33.340Z,78.20
2023-12-14T03:44:05.373Z,89.30
2023-12-14T03:46:37.515Z,82.40
2023-12-14T03:49:10.191Z,88.40
2023-12-14T03:51:44.245Z,86.40
2023-12-14T03:54:16.188Z,95.50
2023-12-14T03:56:47.996Z,88.60
2023-12-14T03:59:19.863Z,81.60
2023-12-14T04:01:52.275Z,74.00
2023-12-14T04:04:24.573Z,81.30
2023-12-14T04:06:56.748Z,74.80
2023-12-14T04:09:28.612Z,81.00
2023-12-14T04:12:00.845Z,72.60
2023-12-14T04:14:32.842Z,71.50
2023-12-14T04:17:05.284Z,68.30
2023-12-14T04:19:37.271Z,89.10
2023-12-14T04:22:09.473Z,84.10
2023-12-14T04:24:41.733Z,92.40
2023-12-14T04:27:13.687Z,79.50
2023-12-14T04:29:46.049Z,93.10
2023-12-14T04:32:18.322Z,69.70
2023-12-14T04:34:50.173Z,67.40
2023-12-14T04:37:22.043Z,88.90
2023-12-14T04:39:54.558Z,68.90
2023-12-14T04:42:26.490Z,79.50
2023-12-14T04:44:58.701Z,95.80
2023-12-14T04:47:30.920Z,92.00
2023-12-14T04:50:03.497Z,83.40
2023-12-14T04:52:35.742Z,80.10
2023-12-14T04:55:09.825Z,63.90
2023-12-14T04:57:41.769Z,64.40
2023-12-14T05:00:16.705Z,68.50
2023-12-14T05:02:52.109Z,88.00
2023-12-14T05:05:24.478Z,73.10
2023-12-14T05:07:56.479Z,90.60
2023-12-14T05:10:29.054Z,79.20
2023-12-14T05:13:00.911Z,63.30
2023-12-14T05:15:33.034Z,68.20
2023-12-14T05:18:05.185Z,71.10
2023-12-14T05:20:38.332Z,59.40
2023-12-14T05:23:10.329Z,57.00
2023-12-14T05:25:42.436Z,58.90
2023-12-14T05:28:15.421Z,63.20
2023-12-14T05:30:47.662Z,56.90
2023-12-14T05:33:19.615Z,78.70
2023-12-14T05:35:52.069Z,94.70
2023-12-14T05:38:24.301Z,101.20
2023-12-14T05:40:56.276Z,72.00
2023-12-14T05:43:28.200Z,81.10
2023-12-14T05:46:00.600Z,72.50
2023-12-14T05:48:32.631Z,87.90
2023-12-14T05:51:05.735Z,64.70
2023-12-14T05:53:40.729Z,57.80
2023-12-14T05:56:14.525Z,60.10
2023-12-14T05:58:46.469Z,65.90
2023-12-14T06:01:20.505Z,80.40
2023-12-14T06:03:53.016Z,73.30
2023-12-14T06:06:25.116Z,68.20
2023-12-14T06:08:57.455Z,78.70
2023-12-14T06:11:29.698Z,76.00
2023-12-14T06:14:01.999Z,68.10
2023-12-14T06:16:34.045Z,93.90
2023-12-14T06:19:06.103Z,72.60
2023-12-14T06:21:38.305Z,92.70
2023-12-14T06:24:11.104Z,80.30
2023-12-14T06:26:45.985Z,72.30
2023-12-14T06:29:17.936Z,90.20
2023-12-14T06:31:50.548Z,84.60
2023-12-14T06:34:22.429Z,111.10
2023-12-14T06:36:54.865Z,93.90
2023-12-14T06:39:27.101Z,108.10
2023-12-14T06:41:58.939Z,94.40
2023-12-14T06:44:31.713Z,123.10
2023-12-14T06:47:03.948Z,96.80
2023-12-14T06:49:36.376Z,111.40
2023-12-14T06:52:09.365Z,86.40
2023-12-14T06:54:41.280Z,94.40
2023-12-14T06:57:14.062Z,91.20
2023-12-14T06:59:46.244Z,99.80
2023-12-14T07:02:18.531Z,144.30
2023-12-14T07:04:51.183Z,118.80
2023-12-14T07:07:23.259Z,130.30
2023-12-14T07:09:55.588Z,107.30
2023-12-14T07:12:27.561Z,100.10
2023-12-14T07:14:59.478Z,93.00
2023-12-14T07:17:31.567Z,95.50
2023-12-14T07:20:03.675Z,87.50
2023-12-14T07:22:36.478Z,104.50
2023-12-14T07:25:10.217Z,111.30
2023-12-14T07:27:42.229Z,125.20
2023-12-14T07:30:15.657Z,109.10
2023-12-14T07:32:47.881Z,116.70
2023-12-14T07:35:19.869Z,128.40
2023-12-14T07:37:51.998Z,96.10
2023-12-14T07:40:24.294Z,91.00
2023-12-14T07:42:56.263Z,105.90
2023-12-14T07:45:28.117Z,99.70
2023-12-14T07:48:00.354Z,86.60
2023-12-14T07:50:32.520Z,84.20
2023-12-14T07:53:05.399Z,109.90
2023-12-14T07:55:37.322Z,102.90
2023-12-14T07:58:09.594Z,89.30
2023-12-14T08:00:41.634Z,96.90
2023-12-14T08:03:13.852Z,118.20
2023-12-14T08:05:46.073Z,92.80
2023-12-14T08:08:18.228Z,85.30
2023-12-14T08:10:50.355Z,96.60
2023-12-14T08:13:22.375Z,88.30
2023-12-14T08:15:54.306Z,93.50
2023-12-14T08:18:26.358Z,117.10
2023-12-14T08:20:58.323Z,132.10
2023-12-14T08:23:31.274Z,107.60
2023-12-14T08:26:03.998Z,113.20
2023-12-14T08:28:36.096Z,94.00
2023-12-14T08:31:09.556Z,97.50
2023-12-14T08:33:43.832Z,85.40
2023-12-14T08:36:20.284Z,94.90
2023-12-14T08:38:52.251Z,100.30
2023-12-14T08:41:24.270Z,110.30
2023-12-14T08:43:56.990Z,93.10
2023-12-14T08:46:29.076Z,99.00
2023-12-14T08:49:01.169Z,98.70
2023-12-14T08:51:33.291Z,94.80
2023-12-14T08:54:05.482Z,89.80
2023-12-14T08:56:37.484Z,121.20
2023-12-14T08:59:10.419Z,119.70
2023-12-14T09:01:42.677Z,113.10
2023-12-14T09:04:15.700Z,96.70
2023-12-14T09:06:48.066Z,68.30
2023-12-14T09:09:20.625Z,66.50
2023-12-14T09:11:54.965Z,67.40
2023-12-14T09:14:27.628Z,96.30
2023-12-14T09:16:59.625Z,134.30
2023-12-14T09:19:33.344Z,74.30
2023-12-14T09:22:05.399Z,57.20
2023-12-14T09:24:37.324Z,48.00
2023-12-14T09:27:09.535Z,45.80
2023-12-14T09:29:41.562Z,41.80
2023-12-14T09:32:13.660Z,42.70
2023-12-14T09:34:45.928Z,74.40
2023-12-14T09:37:17.907Z,55.40
2023-12-14T09:39:49.905Z,53.70
2023-12-14T09:42:22.880Z,49.60
2023-12-14T09:44:57.552Z,49.60
2023-12-14T09:47:30.008Z,53.10
2023-12-14T09:50:04.271Z,42.80
2023-12-14T09:52:36.564Z,39.30
2023-12-14T09:55:09.725Z,319.90
2023-12-14T09:57:41.685Z,77.00
2023-12-14T10:00:34.382Z,50.80
2023-12-14T10:03:27.778Z,50.10
2023-12-14T10:06:03.313Z,56.60
2023-12-14T10:08:35.758Z,55.60
2023-12-14T10:11:18.786Z,52.40
2023-12-14T10:13:51.223Z,46.10
2023-12-14T10:16:36.432Z,55.80
2023-12-14T10:19:08.535Z,49.10
2023-12-14T10:21:40.786Z,47.40
2023-12-14T10:24:13.868Z,48.70
2023-12-14T10:26:48.600Z,48.40
2023-12-14T10:29:20.821Z,60.60
2023-12-14T10:31:53.419Z,57.40
2023-12-14T10:34:25.379Z,74.00
2023-12-14T10:36:57.396Z,49.00
2023-12-14T10:39:31.367Z,48.60
2023-12-14T10:42:15.744Z,37.00
2023-12-14T10:47:30.291Z,34.70
2023-12-14T10:50:04.254Z,37.40
2023-12-14T10:52:37.998Z,35.90
2023-12-14T10:55:17.747Z,41.00
2023-12-14T10:57:51.063Z,42.90
2023-12-14T11:00:23.358Z,41.10
2023-12-14T11:02:55.828Z,35.50
2023-12-14T11:05:31.293Z,38.40
2023-12-14T11:08:10.812Z,51.30
2023-12-14T11:10:44.931Z,40.80
2023-12-14T11:13:19.407Z,46.30
2023-12-14T11:15:53.955Z,51.60
2023-12-14T11:18:33.469Z,37.10
2023-12-14T11:21:05.793Z,52.00
2023-12-14T11:23:40.507Z,66.60
2023-12-14T11:26:14.263Z,63.70
2023-12-14T11:28:46.838Z,53.90
2023-12-14T11:31:19.077Z,60.40
2023-12-14T11:33:54.358Z,46.70
2023-12-14T11:36:27.828Z,42.60
2023-12-14T11:39:02.569Z,43.80
2023-12-14T11:41:35.348Z,47.60
2023-12-14T11:44:08.380Z,45.80
2023-12-14T11:46:42.167Z,48.30
2023-12-14T11:49:14.657Z,39.60
2023-12-14T11:51:49.336Z,37.30
2023-12-14T11:54:21.784Z,36.70
2023-12-14T11:56:54.996Z,38.70
2023-12-14T11:59:28.524Z,38.00
2023-12-14T12:02:02.457Z,53.40
2023-12-14T12:04:34.682Z,41.60
2023-12-14T12:07:10.211Z,53.20
2023-12-14T12:09:44.945Z,43.90
2023-12-14T12:12:17.159Z,43.00
2023-12-14T12:14:50.724Z,54.30
2023-12-14T12:17:23.043Z,58.80
2023-12-14T12:19:55.100Z,50.70
2023-12-14T12:22:27.000Z,59.70
2023-12-14T12:25:08.528Z,65.20
2023-12-14T12:27:48.349Z,52.20
2023-12-14T12:30:20.493Z,49.30
2023-12-14T12:32:53.450Z,62.20
2023-12-14T12:35:26.552Z,52.10
2023-12-14T12:37:58.702Z,54.40
2023-12-14T12:40:32.431Z,61.30
2023-12-14T12:43:04.719Z,55.20
2023-12-14T12:45:36.766Z,48.50
2023-12-14T12:48:09.960Z,57.00
2023-12-14T12:50:42.105Z,64.60
2023-12-14T12:53:14.320Z,55.50
2023-12-14T12:55:46.649Z,53.40
2023-12-14T12:58:18.626Z,63.80
2023-12-14T13:00:50.620Z,74.20
2023-12-14T13:03:22.591Z,71.70
2023-12-14T13:05:55.795Z,73.00
2023-12-14T13:08:27.846Z,65.60
2023-12-14T13:10:59.958Z,62.80
2023-12-14T13:13:32.460Z,64.40
2023-12-14T13:16:04.833Z,75.20
2023-12-14T13:18:36.915Z,53.60
2023-12-14T13:21:09.574Z,48.30
2023-12-14T13:23:42.205Z,59.00
2023-12-14T13:26:14.780Z,59.50
2023-12-14T13:28:47.047Z,59.70
2023-12-14T13:31:19.254Z,72.60
2023-12-14T13:33:51.501Z,95.50
2023-12-14T13:36:24.962Z,82.40
2023-12-14T13:38:57.617Z,68.80
2023-12-14T13:41:42.249Z,81.40
2023-12-14T13:44:22.454Z,87.90
2023-12-14T13:46:54.676Z,109.90
2023-12-14T13:49:26.924Z,101.00
2023-12-14T13:51:59.076Z,103.10
2023-12-14T13:54:31.364Z,87.70
2023-12-14T13:57:03.554Z,101.60
2023-12-14T13:59:35.569Z,97.70
2023-12-14T14:02:08.022Z,93.30
2023-12-14T14:04:40.224Z,110.10
2023-12-14T14:07:12.295Z,93.60
2023-12-14T14:09:45.453Z,100.70
2023-12-14T14:12:17.474Z,117.60
2023-12-14T14:14:49.761Z,88.80
2023-12-14T14:17:21.837Z,85.30
2023-12-14T14:19:54.157Z,81.50
2023-12-14T14:22:26.271Z,92.40
2023-12-14T14:24:58.643Z,79.10
2023-12-14T14:27:30.727Z,81.00
2023-12-14T14:30:04.931Z,78.00
2023-12-14T14:32:39.152Z,77.60
2023-12-14T14:35:12.146Z,79.80
2023-12-14T14:37:47.042Z,80.10
2023-12-14T14:40:19.629Z,80.80
2023-12-14T14:42:51.642Z,79.20
2023-12-14T14:45:23.726Z,91.70
2023-12-14T14:47:56.012Z,100.20
2023-12-14T14:50:28.356Z,114.80
2023-12-14T14:53:00.395Z,98.00
2023-12-14T14:55:34.178Z,96.40
2023-12-14T14:58:06.119Z,104.40
2023-12-14T15:00:40.262Z,116.70
2023-12-14T15:03:12.384Z,94.90
2023-12-14T15:05:44.693Z,82.70
2023-12-14T15:08:16.943Z,104.40
2023-12-14T15:10:48.993Z,84.20
2023-12-14T15:13:20.997Z,96.00
2023-12-14T15:15:52.948Z,87.50
2023-12-14T15:18:25.018Z,93.50
2023-12-14T15:20:57.009Z,91.50
2023-12-14T15:23:29.091Z,91.50
2023-12-14T15:26:01.062Z,74.80
2023-12-14T15:28:33.203Z,75.00
2023-12-14T15:31:05.346Z,102.10
2023-12-14T15:33:37.556Z,93.20
2023-12-14T15:36:10.542Z,82.40
2023-12-14T15:38:46.494Z,71.40
2023-12-14T15:41:19.096Z,72.40
2023-12-14T15:43:51.092Z,78.20
2023-12-14T15:46:23.018Z,76.00
2023-12-14T15:48:55.056Z,71.90
2023-12-14T15:51:27.928Z,84.40
2023-12-14T15:54:00.729Z,92.00
2023-12-14T15:56:35.599Z,168.00
2023-12-14T15:59:08.443Z,89.90
2023-12-14T16:01:42.171Z,102.20
2023-12-14T16:04:14.546Z,96.90
2023-12-14T16:06:46.572Z,82.30
2023-12-14T16:09:19.466Z,81.70
2023-12-14T16:11:51.563Z,81.70
2023-12-14T16:14:23.696Z,76.80
2023-12-14T16:16:55.717Z,96.00
2023-12-14T16:19:28.519Z,83.20
2023-12-14T16:22:00.470Z,77.90
2023-12-14T16:24:32.481Z,72.50
2023-12-14T16:27:04.629Z,75.30
2023-12-14T16:29:38.118Z,76.70
2023-12-14T16:32:10.672Z,73.00
2023-12-14T16:34:42.724Z,63.20
2023-12-14T16:37:14.913Z,75.50
2023-12-14T16:39:46.907Z,71.70
2023-12-14T16:42:18.935Z,78.40
2023-12-14T16:44:50.972Z,133.20
2023-12-14T16:47:23.043Z,66.30
2023-12-14T16:49:55.073Z,64.10
2023-12-14T16:52:27.080Z,64.60
2023-12-14T16:54:59.045Z,54.30
2023-12-14T16:57:31.323Z,62.50
2023-12-14T17:00:03.506Z,76.90
2023-12-14T17:02:35.792Z,75.60
2023-12-14T17:05:08.952Z,66.00
2023-12-14T17:07:40.910Z,70.50
2023-12-14T17:10:13.400Z,68.00
2023-12-14T17:12:45.340Z,77.30
2023-12-14T17:15:17.490Z,74.00
2023-12-14T17:17:49.448Z,71.90
2023-12-14T17:20:21.764Z,72.20
2023-12-14T17:22:53.793Z,60.30
2023-12-14T17:25:25.859Z,75.40
2023-12-14T17:27:57.899Z,78.80
2023-12-14T17:30:31.171Z,64.10
2023-12-14T17:33:06.862Z,63.40
2023-12-14T17:35:39.002Z,80.00
2023-12-14T17:38:10.977Z,95.80
2023-12-14T17:40:43.146Z,93.70
2023-12-14T17:43:15.109Z,84.10
2023-12-14T17:45:47.127Z,86.30
2023-12-14T17:48:19.222Z,98.80
2023-12-14T17:50:51.481Z,139.00
2023-12-14T17:53:23.488Z,125.50
2023-12-14T17:55:55.611Z,84.80
2023-12-14T17:58:27.828Z,88.20
2023-12-14T18:01:04.042Z,74.50
2023-12-14T18:03:37.272Z,88.90
2023-12-14T18:06:10.089Z,96.30
2023-12-14T18:08:42.145Z,88.60
2023-12-14T18:11:14.301Z,87.10
2023-12-14T18:13:46.321Z,78.40
2023-12-14T18:16:18.332Z,81.60
2023-12-14T18:18:50.340Z,65.70
2023-12-14T18:21:22.463Z,74.90
2023-12-14T18:23:54.406Z,76.30
2023-12-14T18:26:26.527Z,62.90
2023-12-14T18:28:58.586Z,63.10
2023-12-14T18:31:34.075Z,61.30
2023-12-14T18:34:08.629Z,69.30
2023-12-14T18:36:40.812Z,64.30
2023-12-14T18:39:12.877Z,71.30
2023-12-14T18:41:45.403Z,74.20
2023-12-14T18:44:17.333Z,70.20
2023-12-14T18:46:49.401Z,70.10
2023-12-14T18:49:21.524Z,64.90
2023-12-14T18:51:53.613Z,51.70
2023-12-14T18:54:25.944Z,62.60
2023-12-14T18:56:57.956Z,61.90
2023-12-14T18:59:29.928Z,62.80
2023-12-14T19:02:01.954Z,74.70
2023-12-14T19:04:33.928Z,77.40
2023-12-14T19:07:06.082Z,72.00
2023-12-14T19:09:38.032Z,65.90
2023-12-14T19:12:10.261Z,83.60
2023-12-14T19:14:42.233Z,61.40
2023-12-14T19:17:14.761Z,58.00
2023-12-14T19:19:46.781Z,66.10
2023-12-14T19:22:18.746Z,53.90
2023-12-14T19:24:50.685Z,63.90
2023-12-14T19:27:22.677Z,65.80
2023-12-14T19:29:54.704Z,98.50
2023-12-14T19:32:26.755Z,64.60
2023-12-14T19:34:59.394Z,71.70
2023-12-14T19:37:31.841Z,63.30
2023-12-14T19:40:06.104Z,63.60
2023-12-14T19:42:38.374Z,57.50
2023-12-14T19:45:11.589Z,51.90
2023-12-14T19:47:43.944Z,59.40
2023-12-14T19:50:16.365Z,71.10
2023-12-14T19:52:49.076Z,73.40
2023-12-14T19:55:21.124Z,64.80
2023-12-14T19:57:53.178Z,67.20
2023-12-14T20:00:25.263Z,63.50
2023-12-14T20:02:57.347Z,57.00
2023-12-14T20:05:29.462Z,61.20
2023-12-14T20:08:01.476Z,54.40
2023-12-14T20:10:48.635Z,62.60
2023-12-14T20:13:21.778Z,60.40
2023-12-14T20:15:53.742Z,57.50
2023-12-14T20:18:25.789Z,50.90
2023-12-14T20:20:57.853Z,59.20
2023-12-14T20:23:30.054Z,67.10
2023-12-14T20:26:02.096Z,80.00
2023-12-14T20:28:34.044Z,76.10
2023-12-14T20:31:06.423Z,68.40
2023-12-14T20:33:38.468Z,70.40
2023-12-14T20:36:12.337Z,72.90
2023-12-14T20:38:45.518Z,70.30
2023-12-14T20:41:17.650Z,66.30
2023-12-14T20:43:49.874Z,69.80
2023-12-14T20:46:21.850Z,55.60
2023-12-14T20:48:53.934Z,66.60
2023-12-14T20:51:26.190Z,63.20
2023-12-14T20:53:58.335Z,60.20
2023-12-14T20:56:30.315Z,66.00
2023-12-14T20:59:03.368Z,59.70
2023-12-14T21:01:35.663Z,59.60
2023-12-14T21:04:07.972Z,62.70
2023-12-14T21:06:40.023Z,56.10
2023-12-14T21:09:12.114Z,54.40
2023-12-14T21:11:44.041Z,62.70
2023-12-14T21:14:17.239Z,71.90
2023-12-14T21:16:52.655Z,59.40
2023-12-14T21:19:24.736Z,85.00
2023-12-14T21:21:59.964Z,73.90
2023-12-14T21:24:32.159Z,79.50
2023-12-14T21:27:18.307Z,72.70
2023-12-14T21:29:50.536Z,57.50
2023-12-14T21:32:22.564Z,68.50
2023-12-14T21:34:54.651Z,64.20
2023-12-14T21:37:26.901Z,72.90
2023-12-14T21:39:58.848Z,62.10
2023-12-14T21:42:30.874Z,73.50
2023-12-14T21:45:02.887Z,83.60
2023-12-14T21:47:36.419Z,75.10
2023-12-14T21:50:10.734Z,77.20
2023-12-14T21:52:42.810Z,80.20
2023-12-14T21:55:15.461Z,79.30
2023-12-14T21:57:47.607Z,81.20
2023-12-14T22:00:21.328Z,66.90
2023-12-14T22:02:53.283Z,76.10
2023-12-14T22:05:25.669Z,77.50
2023-12-14T22:07:57.687Z,69.10
2023-12-14T22:10:29.806Z,62.70
2023-12-14T22:13:01.968Z,51.40
2023-12-14T22:15:34.316Z,59.70
2023-12-14T22:18:07.290Z,63.00
2023-12-14T22:20:39.461Z,59.90
2023-12-14T22:23:11.506Z,57.40
2023-12-14T22:25:43.616Z,70.50
2023-12-14T22:28:15.587Z,56.90
2023-12-14T22:30:47.674Z,53.60
2023-12-14T22:33:42.100Z,46.50
2023-12-14T22:36:14.597Z,45.20
2023-12-14T22:38:46.580Z,43.50
2023-12-14T22:41:19.982Z,43.80
2023-12-14T22:43:51.989Z,49.10
2023-12-14T22:46:24.384Z,51.80
2023-12-14T22:48:56.534Z,48.60
2023-12-14T22:51:28.669Z,49.80
2023-12-14T22:54:00.739Z,48.50
2023-12-14T22:56:33.027Z,50.00
2023-12-14T22:59:07.563Z,70.50
2023-12-14T23:01:40.089Z,73.30
2023-12-14T23:04:12.154Z,58.60
2023-12-14T23:06:44.952Z,47.30
2023-12-14T23:09:18.716Z,56.20
2023-12-14T23:11:50.761Z,54.00
2023-12-14T23:14:22.759Z,53.30
2023-12-14T23:16:54.847Z,53.90
2023-12-14T23:19:26.954Z,56.70
2023-12-14T23:22:00.739Z,58.10
2023-12-14T23:24:32.874Z,50.40
2023-12-14T23:27:05.744Z,57.80
2023-12-14T23:29:37.900Z,63.60
2023-12-14T23:32:11.266Z,53.10
2023-12-14T23:34:43.300Z,42.90
2023-12-14T23:37:15.382Z,42.50
2023-12-14T23:39:47.577Z,47.20
2023-12-14T23:42:19.579Z,49.50
2023-12-14T23:44:51.550Z,50.80
2023-12-14T23:47:23.714Z,44.60
2023-12-14T23:49:56.023Z,45.40
2023-12-14T23:52:28.104Z,46.50
2023-12-14T23:55:00.263Z,39.70
2023-12-14T23:57:32.417Z,49.20
